Check out our new PWSWeather beta!
PWSweather.com
Personal Weather Stations
Station Observations
PICKERING
North Yorkshire, PickeringGB

North YorkshirePickeringGB

Lat: 54.2494, Lon: -0.7725

Elevation: 192

Station Type: Oregon Scientific WMR100

High Low Average
Temperature 75.4°F24.1°C 57.4°F14.1°C 65.0°F18.3°C
Dew Point 64.4°F18.0°C 51.8°F11.0°C 58.5°F14.7°C
Winds 7.6 mph 12.2 kmh Calm Calm 3.0 mph SSE4.8 kmh SSE
Wind Gusts 8.9 mph14.3 kmh -- 5.0 mph8.0 kmh
Humidity 90% 64% 79%
Pressure 30.12 in1020.0 mb 30.07 in1018.3 mb -
Precipitation 0.06 in1.5 mm - -
Hour Temp Dew Point Humidity Winds Wind Gusts Pressure Precip Precip Rate Daily Precip Total
12:00 AM 60.8°F16.0°C 57.2°F14.0°C 86% 2.9 mph N4.7 kmh N 4.5 mph7.2 kmh 30.09 in1019.0 mb 0.00 in0.0 mm 0.00 in0.0 mm 0.00 in0.0 mm
12:05 AM 60.8°F16.0°C 57.2°F14.0°C 86% 2.4 mph NNW3.9 kmh NNW 4.0 mph6.4 kmh 30.09 in1019.0 mb 0.00 in0.0 mm 0.00 in0.0 mm 0.00 in0.0 mm
12:10 AM 60.6°F15.9°C 57.2°F14.0°C 86% 2.3 mph NW3.7 kmh NW 3.6 mph5.8 kmh 30.09 in1019.0 mb 0.00 in0.0 mm 0.00 in0.0 mm 0.00 in0.0 mm
12:15 AM 60.6°F15.9°C 57.2°F14.0°C 87% 2.3 mph NW3.7 kmh NW 3.6 mph5.8 kmh 30.09 in1019.0 mb 0.00 in0.0 mm 0.00 in0.0 mm 0.00 in0.0 mm
12:20 AM 60.6°F15.9°C 57.2°F14.0°C 87% 3.0 mph NW4.8 kmh NW 5.6 mph9.0 kmh 30.09 in1019.0 mb 0.00 in0.0 mm 0.00 in0.0 mm 0.00 in0.0 mm
12:25 AM 60.4°F15.8°C 57.2°F14.0°C 87% 3.3 mph NNW5.3 kmh NNW 5.6 mph9.0 kmh 30.09 in1019.0 mb 0.00 in0.0 mm 0.00 in0.0 mm 0.00 in0.0 mm
12:30 AM 60.4°F15.8°C 57.2°F14.0°C 87% 3.0 mph NNW4.8 kmh NNW 4.3 mph6.9 kmh 30.09 in1019.0 mb 0.00 in0.0 mm 0.00 in0.0 mm 0.00 in0.0 mm
12:35 AM 60.3°F15.7°C 57.2°F14.0°C 87% 3.0 mph NNW4.8 kmh NNW 4.3 mph6.9 kmh 30.09 in1019.0 mb 0.00 in0.0 mm 0.00 in0.0 mm 0.00 in0.0 mm
12:40 AM 60.1°F15.6°C 57.2°F14.0°C 87% 2.8 mph NNW4.5 kmh NNW 3.6 mph5.8 kmh 30.09 in1019.0 mb 0.00 in0.0 mm 0.00 in0.0 mm 0.00 in0.0 mm
12:45 AM 60.1°F15.6°C 57.2°F14.0°C 87% 2.6 mph NNW4.2 kmh NNW 3.4 mph5.5 kmh 30.09 in1019.0 mb 0.00 in0.0 mm 0.00 in0.0 mm 0.00 in0.0 mm
12:50 AM 59.9°F15.5°C 57.2°F14.0°C 87% 2.3 mph N3.7 kmh N 3.4 mph5.5 kmh 30.09 in1019.0 mb 0.00 in0.0 mm 0.00 in0.0 mm 0.00 in0.0 mm
12:55 AM 59.9°F15.5°C 57.2°F14.0°C 87% 2.5 mph N4.0 kmh N 3.8 mph6.1 kmh 30.09 in1019.0 mb 0.00 in0.0 mm 0.00 in0.0 mm 0.00 in0.0 mm
01:00 AM 59.9°F15.5°C 57.2°F14.0°C 87% 3.0 mph N4.8 kmh N 4.0 mph6.4 kmh 30.09 in1019.0 mb 0.00 in0.0 mm 0.00 in0.0 mm 0.00 in0.0 mm
01:05 AM 59.9°F15.5°C 57.2°F14.0°C 87% 2.9 mph N4.7 kmh N 4.0 mph6.4 kmh 30.09 in1019.0 mb 0.00 in0.0 mm 0.00 in0.0 mm 0.00 in0.0 mm
01:10 AM 59.9°F15.5°C 57.2°F14.0°C 88% 3.1 mph N5.0 kmh N 5.6 mph9.0 kmh 30.09 in1019.0 mb 0.00 in0.0 mm 0.00 in0.0 mm 0.00 in0.0 mm
01:15 AM 60.1°F15.6°C 57.2°F14.0°C 88% 3.2 mph N5.1 kmh N 5.6 mph9.0 kmh 30.09 in1019.0 mb 0.00 in0.0 mm 0.00 in0.0 mm 0.00 in0.0 mm
01:20 AM 60.3°F15.7°C 57.2°F14.0°C 88% 4.0 mph N6.4 kmh N 6.3 mph10.1 kmh 30.09 in1019.0 mb 0.00 in0.0 mm 0.00 in0.0 mm 0.00 in0.0 mm
01:25 AM 60.3°F15.7°C 57.2°F14.0°C 88% 4.4 mph N7.1 kmh N 6.3 mph10.1 kmh 30.09 in1019.0 mb 0.00 in0.0 mm 0.00 in0.0 mm 0.00 in0.0 mm
01:30 AM 60.3°F15.7°C 57.2°F14.0°C 88% 4.5 mph N7.2 kmh N 6.7 mph10.8 kmh 30.09 in1019.0 mb 0.00 in0.0 mm 0.00 in0.0 mm 0.00 in0.0 mm
01:35 AM 60.1°F15.6°C 57.2°F14.0°C 88% 4.4 mph N7.1 kmh N 6.7 mph10.8 kmh 30.07 in1018.3 mb 0.00 in0.0 mm 0.00 in0.0 mm 0.00 in0.0 mm
01:40 AM 59.9°F15.5°C 57.2°F14.0°C 88% 4.2 mph NNE6.8 kmh NNE 6.0 mph9.7 kmh 30.07 in1018.3 mb 0.00 in0.0 mm 0.00 in0.0 mm 0.00 in0.0 mm
01:45 AM 59.9°F15.5°C 57.2°F14.0°C 88% 4.0 mph NNE6.4 kmh NNE 5.4 mph8.7 kmh 30.07 in1018.3 mb 0.00 in0.0 mm 0.00 in0.0 mm 0.00 in0.0 mm
01:50 AM 59.7°F15.4°C 55.4°F13.0°C 88% 3.5 mph N5.6 kmh N 4.7 mph7.6 kmh 30.09 in1019.0 mb 0.00 in0.0 mm 0.00 in0.0 mm 0.00 in0.0 mm
01:55 AM 59.7°F15.4°C 55.4°F13.0°C 88% 3.2 mph NNW5.1 kmh NNW 4.7 mph7.6 kmh 30.09 in1019.0 mb 0.00 in0.0 mm 0.00 in0.0 mm 0.00 in0.0 mm
02:00 AM 59.7°F15.4°C 55.4°F13.0°C 88% 2.6 mph NNW4.2 kmh NNW 4.3 mph6.9 kmh 30.09 in1019.0 mb 0.00 in0.0 mm 0.00 in0.0 mm 0.00 in0.0 mm
02:05 AM 59.7°F15.4°C 55.4°F13.0°C 88% 1.8 mph NNW2.9 kmh NNW 2.9 mph4.7 kmh 30.09 in1019.0 mb 0.00 in0.0 mm 0.00 in0.0 mm 0.00 in0.0 mm
02:10 AM 59.7°F15.4°C 55.4°F13.0°C 88% 2.1 mph NNW3.4 kmh NNW 2.9 mph4.7 kmh 30.09 in1019.0 mb 0.00 in0.0 mm 0.00 in0.0 mm 0.00 in0.0 mm
02:15 AM 59.7°F15.4°C 55.4°F13.0°C 88% 1.8 mph NW2.9 kmh NW 3.1 mph5.0 kmh 30.09 in1019.0 mb 0.00 in0.0 mm 0.00 in0.0 mm 0.00 in0.0 mm
02:20 AM 59.7°F15.4°C 55.4°F13.0°C 88% 1.4 mph NW2.3 kmh NW 3.1 mph5.0 kmh 30.09 in1019.0 mb 0.00 in0.0 mm 0.00 in0.0 mm 0.00 in0.0 mm
02:25 AM 59.7°F15.4°C 55.4°F13.0°C 88% 1.8 mph NW2.9 kmh NW 3.6 mph5.8 kmh 30.09 in1019.0 mb 0.00 in0.0 mm 0.00 in0.0 mm 0.00 in0.0 mm
02:30 AM 59.5°F15.3°C 55.4°F13.0°C 88% 1.9 mph NNW3.1 kmh NNW 3.6 mph5.8 kmh 30.09 in1019.0 mb 0.00 in0.0 mm 0.00 in0.0 mm 0.00 in0.0 mm
02:35 AM 59.7°F15.4°C 55.4°F13.0°C 88% 1.9 mph NNW3.1 kmh NNW 3.1 mph5.0 kmh 30.09 in1019.0 mb 0.00 in0.0 mm 0.00 in0.0 mm 0.00 in0.0 mm
02:40 AM 59.7°F15.4°C 55.4°F13.0°C 88% 2.0 mph N3.2 kmh N 3.1 mph5.0 kmh 30.09 in1019.0 mb 0.00 in0.0 mm 0.00 in0.0 mm 0.00 in0.0 mm
02:45 AM 59.9°F15.5°C 57.2°F14.0°C 88% 2.0 mph N3.2 kmh N 3.4 mph5.5 kmh 30.09 in1019.0 mb 0.00 in0.0 mm 0.00 in0.0 mm 0.00 in0.0 mm
02:50 AM 59.9°F15.5°C 57.2°F14.0°C 89% 2.2 mph NW3.5 kmh NW 3.4 mph5.5 kmh 30.09 in1019.0 mb 0.00 in0.0 mm 0.00 in0.0 mm 0.00 in0.0 mm
02:55 AM 59.9°F15.5°C 57.2°F14.0°C 88% 2.0 mph NW3.2 kmh NW 3.4 mph5.5 kmh 30.09 in1019.0 mb 0.00 in0.0 mm 0.00 in0.0 mm 0.00 in0.0 mm
03:00 AM 59.9°F15.5°C 57.2°F14.0°C 89% 1.6 mph NNW2.6 kmh NNW 3.4 mph5.5 kmh 30.09 in1019.0 mb 0.00 in0.0 mm 0.00 in0.0 mm 0.00 in0.0 mm
03:05 AM 59.9°F15.5°C 57.2°F14.0°C 89% 1.5 mph N2.4 kmh N 2.9 mph4.7 kmh 30.09 in1019.0 mb 0.00 in0.0 mm 0.00 in0.0 mm 0.00 in0.0 mm
03:10 AM 59.9°F15.5°C 57.2°F14.0°C 89% 1.5 mph N2.4 kmh N 2.9 mph4.7 kmh 30.09 in1019.0 mb 0.00 in0.0 mm 0.00 in0.0 mm 0.00 in0.0 mm
03:15 AM 59.9°F15.5°C 57.2°F14.0°C 89% 1.2 mph N1.9 kmh N 2.9 mph4.7 kmh 30.09 in1019.0 mb 0.00 in0.0 mm 0.00 in0.0 mm 0.00 in0.0 mm
03:20 AM 59.9°F15.5°C 57.2°F14.0°C 89% 2.1 mph NNW3.4 kmh NNW 3.4 mph5.5 kmh 30.09 in1019.0 mb 0.00 in0.0 mm 0.00 in0.0 mm 0.00 in0.0 mm
03:25 AM 60.1°F15.6°C 57.2°F14.0°C 89% 2.0 mph NNW3.2 kmh NNW 3.4 mph5.5 kmh 30.09 in1019.0 mb 0.00 in0.0 mm 0.00 in0.0 mm 0.00 in0.0 mm
03:30 AM 60.1°F15.6°C 57.2°F14.0°C 89% 1.6 mph NNW2.6 kmh NNW 2.9 mph4.7 kmh 30.09 in1019.0 mb 0.00 in0.0 mm 0.00 in0.0 mm 0.00 in0.0 mm
03:35 AM 60.1°F15.6°C 57.2°F14.0°C 89% 1.2 mph NNW1.9 kmh NNW 2.9 mph4.7 kmh 30.07 in1018.3 mb 0.00 in0.0 mm 0.00 in0.0 mm 0.00 in0.0 mm
03:40 AM 59.9°F15.5°C 57.2°F14.0°C 89% 1.0 mph NW1.6 kmh NW 2.0 mph3.2 kmh 30.07 in1018.3 mb 0.00 in0.0 mm 0.00 in0.0 mm 0.00 in0.0 mm
03:45 AM 59.9°F15.5°C 57.2°F14.0°C 89% 0.9 mph N1.4 kmh N 3.1 mph5.0 kmh 30.07 in1018.3 mb 0.00 in0.0 mm 0.00 in0.0 mm 0.00 in0.0 mm
03:50 AM 59.7°F15.4°C 57.2°F14.0°C 89% 0.5 mph N0.8 kmh N 3.1 mph5.0 kmh 30.09 in1019.0 mb 0.00 in0.0 mm 0.00 in0.0 mm 0.00 in0.0 mm
03:55 AM 59.7°F15.4°C 57.2°F14.0°C 89% 0.9 mph NW1.4 kmh NW 2.5 mph4.0 kmh 30.09 in1019.0 mb 0.00 in0.0 mm 0.00 in0.0 mm 0.00 in0.0 mm
04:00 AM 59.7°F15.4°C 57.2°F14.0°C 89% 1.1 mph NNW1.8 kmh NNW 2.5 mph4.0 kmh 30.09 in1019.0 mb 0.00 in0.0 mm 0.00 in0.0 mm 0.00 in0.0 mm
04:05 AM 59.4°F15.2°C 57.2°F14.0°C 89% 0.3 mph NE0.5 kmh NE 1.6 mph2.6 kmh 30.09 in1019.0 mb 0.00 in0.0 mm 0.00 in0.0 mm 0.00 in0.0 mm
04:10 AM 59.2°F15.1°C 55.4°F13.0°C 88% Calm Calm -- 30.09 in1019.0 mb 0.00 in0.0 mm 0.00 in0.0 mm 0.00 in0.0 mm
04:15 AM 59.0°F15.0°C 55.4°F13.0°C 88% 0.1 mph W0.2 kmh W 2.2 mph3.5 kmh 30.09 in1019.0 mb 0.00 in0.0 mm 0.00 in0.0 mm 0.00 in0.0 mm
04:20 AM 59.0°F15.0°C 55.4°F13.0°C 88% 0.4 mph WNW0.6 kmh WNW 2.2 mph3.5 kmh 30.09 in1019.0 mb 0.00 in0.0 mm 0.00 in0.0 mm 0.00 in0.0 mm
04:25 AM 59.2°F15.1°C 55.4°F13.0°C 89% 0.5 mph WNW0.8 kmh WNW 2.2 mph3.5 kmh 30.09 in1019.0 mb 0.00 in0.0 mm 0.00 in0.0 mm 0.00 in0.0 mm
04:30 AM 59.2°F15.1°C 55.4°F13.0°C 89% 0.6 mph W1.0 kmh W 2.5 mph4.0 kmh 30.09 in1019.0 mb 0.00 in0.0 mm 0.00 in0.0 mm 0.00 in0.0 mm
04:35 AM 59.4°F15.2°C 57.2°F14.0°C 89% 0.6 mph W1.0 kmh W 2.5 mph4.0 kmh 30.07 in1018.3 mb 0.00 in0.0 mm 0.00 in0.0 mm 0.00 in0.0 mm
04:40 AM 59.4°F15.2°C 57.2°F14.0°C 89% 1.0 mph WSW1.6 kmh WSW 2.5 mph4.0 kmh 30.07 in1018.3 mb 0.00 in0.0 mm 0.00 in0.0 mm 0.00 in0.0 mm
04:45 AM 59.5°F15.3°C 57.2°F14.0°C 89% 1.6 mph W2.6 kmh W 2.5 mph4.0 kmh 30.07 in1018.3 mb 0.00 in0.0 mm 0.00 in0.0 mm 0.00 in0.0 mm
04:50 AM 59.5°F15.3°C 57.2°F14.0°C 89% 1.2 mph WSW1.9 kmh WSW 2.5 mph4.0 kmh 30.09 in1019.0 mb 0.00 in0.0 mm 0.00 in0.0 mm 0.00 in0.0 mm
04:55 AM 59.5°F15.3°C 57.2°F14.0°C 89% 0.4 mph SW0.6 kmh SW 2.0 mph3.2 kmh 30.09 in1019.0 mb 0.00 in0.0 mm 0.00 in0.0 mm 0.00 in0.0 mm
05:00 AM 59.5°F15.3°C 57.2°F14.0°C 89% Calm Calm -- 30.09 in1019.0 mb 0.00 in0.0 mm 0.00 in0.0 mm 0.00 in0.0 mm
05:05 AM 59.5°F15.3°C 57.2°F14.0°C 89% Calm Calm -- 30.09 in1019.0 mb 0.00 in0.0 mm 0.00 in0.0 mm 0.00 in0.0 mm
05:10 AM 59.7°F15.4°C 57.2°F14.0°C 89% 0.3 mph W0.5 kmh W 1.6 mph2.6 kmh 30.09 in1019.0 mb 0.00 in0.0 mm 0.00 in0.0 mm 0.00 in0.0 mm
05:15 AM 59.7°F15.4°C 57.2°F14.0°C 89% 0.5 mph WNW0.8 kmh WNW 1.6 mph2.6 kmh 30.09 in1019.0 mb 0.00 in0.0 mm 0.00 in0.0 mm 0.00 in0.0 mm
05:20 AM 59.5°F15.3°C 57.2°F14.0°C 89% 0.3 mph NW0.5 kmh NW 1.3 mph2.1 kmh 30.09 in1019.0 mb 0.00 in0.0 mm 0.00 in0.0 mm 0.00 in0.0 mm
05:25 AM 59.5°F15.3°C 57.2°F14.0°C 89% 0.7 mph WSW1.1 kmh WSW 2.0 mph3.2 kmh 30.09 in1019.0 mb 0.00 in0.0 mm 0.00 in0.0 mm 0.00 in0.0 mm
05:30 AM 59.5°F15.3°C 57.2°F14.0°C 89% 1.4 mph WSW2.3 kmh WSW 2.5 mph4.0 kmh 30.09 in1019.0 mb 0.00 in0.0 mm 0.00 in0.0 mm 0.00 in0.0 mm
05:35 AM 59.5°F15.3°C 57.2°F14.0°C 89% 1.5 mph WSW2.4 kmh WSW 2.5 mph4.0 kmh 30.09 in1019.0 mb 0.00 in0.0 mm 0.00 in0.0 mm 0.00 in0.0 mm
05:40 AM 59.5°F15.3°C 57.2°F14.0°C 89% 0.7 mph WSW1.1 kmh WSW 1.6 mph2.6 kmh 30.09 in1019.0 mb 0.00 in0.0 mm 0.00 in0.0 mm 0.00 in0.0 mm
05:45 AM 59.5°F15.3°C 57.2°F14.0°C 89% 0.4 mph NW0.6 kmh NW 2.0 mph3.2 kmh 30.09 in1019.0 mb 0.00 in0.0 mm 0.00 in0.0 mm 0.00 in0.0 mm
05:50 AM 59.7°F15.4°C 57.2°F14.0°C 89% 0.3 mph NNW0.5 kmh NNW 2.0 mph3.2 kmh 30.09 in1019.0 mb 0.00 in0.0 mm 0.00 in0.0 mm 0.00 in0.0 mm
05:55 AM 59.7°F15.4°C 57.2°F14.0°C 89% 0.1 mph W0.2 kmh W 1.1 mph1.8 kmh 30.09 in1019.0 mb 0.00 in0.0 mm 0.00 in0.0 mm 0.00 in0.0 mm
06:00 AM 59.9°F15.5°C 57.2°F14.0°C 89% 0.4 mph WSW0.6 kmh WSW 1.6 mph2.6 kmh 30.09 in1019.0 mb 0.00 in0.0 mm 0.00 in0.0 mm 0.00 in0.0 mm
06:05 AM 60.1°F15.6°C 57.2°F14.0°C 89% 1.0 mph WSW1.6 kmh WSW 2.9 mph4.7 kmh 30.09 in1019.0 mb 0.00 in0.0 mm 0.00 in0.0 mm 0.00 in0.0 mm
06:10 AM 60.3°F15.7°C 57.2°F14.0°C 89% 1.6 mph WSW2.6 kmh WSW 2.9 mph4.7 kmh 30.09 in1019.0 mb 0.00 in0.0 mm 0.00 in0.0 mm 0.00 in0.0 mm
06:15 AM 60.4°F15.8°C 57.2°F14.0°C 89% 1.1 mph WSW1.8 kmh WSW 2.5 mph4.0 kmh 30.09 in1019.0 mb 0.00 in0.0 mm 0.00 in0.0 mm 0.00 in0.0 mm
06:20 AM 60.4°F15.8°C 57.2°F14.0°C 89% 0.8 mph WSW1.3 kmh WSW 2.5 mph4.0 kmh 30.09 in1019.0 mb 0.00 in0.0 mm 0.00 in0.0 mm 0.00 in0.0 mm
06:25 AM 60.6°F15.9°C 57.2°F14.0°C 89% 0.7 mph WSW1.1 kmh WSW 2.2 mph3.5 kmh 30.09 in1019.0 mb 0.00 in0.0 mm 0.00 in0.0 mm 0.00 in0.0 mm
06:30 AM 61.0°F16.1°C 57.2°F14.0°C 89% Calm Calm -- 30.09 in1019.0 mb 0.00 in0.0 mm 0.00 in0.0 mm 0.00 in0.0 mm
06:35 AM 61.2°F16.2°C 59.0°F15.0°C 89% Calm Calm -- 30.09 in1019.0 mb 0.00 in0.0 mm 0.00 in0.0 mm 0.00 in0.0 mm
06:40 AM 61.3°F16.3°C 57.2°F14.0°C 88% 0.2 mph W0.3 kmh W 1.1 mph1.8 kmh 30.09 in1019.0 mb 0.00 in0.0 mm 0.00 in0.0 mm 0.00 in0.0 mm
06:45 AM 61.7°F16.5°C 59.0°F15.0°C 89% 0.4 mph N0.6 kmh N 2.2 mph3.5 kmh 30.09 in1019.0 mb 0.00 in0.0 mm 0.00 in0.0 mm 0.00 in0.0 mm
06:50 AM 61.9°F16.6°C 59.0°F15.0°C 89% 1.3 mph N2.1 kmh N 2.9 mph4.7 kmh 30.09 in1019.0 mb 0.00 in0.0 mm 0.00 in0.0 mm 0.00 in0.0 mm
06:55 AM 62.2°F16.8°C 59.0°F15.0°C 89% 2.0 mph N3.2 kmh N 3.4 mph5.5 kmh 30.09 in1019.0 mb 0.00 in0.0 mm 0.00 in0.0 mm 0.00 in0.0 mm
07:00 AM 62.2°F16.8°C 59.0°F15.0°C 89% 2.5 mph N4.0 kmh N 4.0 mph6.4 kmh 30.09 in1019.0 mb 0.00 in0.0 mm 0.00 in0.0 mm 0.00 in0.0 mm
07:05 AM 62.4°F16.9°C 59.0°F15.0°C 88% 2.6 mph N4.2 kmh N 4.3 mph6.9 kmh 30.09 in1019.0 mb 0.00 in0.0 mm 0.00 in0.0 mm 0.00 in0.0 mm
07:10 AM 62.4°F16.9°C 59.0°F15.0°C 88% 2.4 mph N3.9 kmh N 4.3 mph6.9 kmh 30.09 in1019.0 mb 0.00 in0.0 mm 0.00 in0.0 mm 0.00 in0.0 mm
07:15 AM 62.2°F16.8°C 59.0°F15.0°C 89% 3.0 mph N4.8 kmh N 3.8 mph6.1 kmh 30.09 in1019.0 mb 0.00 in0.0 mm 0.00 in0.0 mm 0.00 in0.0 mm
07:20 AM 62.2°F16.8°C 59.0°F15.0°C 89% 3.1 mph N5.0 kmh N 4.3 mph6.9 kmh 30.09 in1019.0 mb 0.00 in0.0 mm 0.00 in0.0 mm 0.00 in0.0 mm
07:25 AM 62.2°F16.8°C 59.0°F15.0°C 89% 3.1 mph NNE5.0 kmh NNE 4.3 mph6.9 kmh 30.09 in1019.0 mb 0.00 in0.0 mm 0.00 in0.0 mm 0.00 in0.0 mm
07:30 AM 62.1°F16.7°C 59.0°F15.0°C 89% 3.1 mph N5.0 kmh N 4.3 mph6.9 kmh 30.09 in1019.0 mb 0.06 in1.5 mm 0.72 in18.3 mm 0.06 in1.5 mm
07:35 AM 62.1°F16.7°C 59.0°F15.0°C 89% 2.5 mph N4.0 kmh N 4.3 mph6.9 kmh 30.09 in1019.0 mb 0.06 in1.5 mm 0.00 in0.0 mm 0.06 in1.5 mm
07:40 AM 62.2°F16.8°C 59.0°F15.0°C 90% 2.0 mph N3.2 kmh N 3.8 mph6.1 kmh 30.09 in1019.0 mb 0.06 in1.5 mm 0.00 in0.0 mm 0.06 in1.5 mm
07:45 AM 62.4°F16.9°C 59.0°F15.0°C 90% 2.3 mph N3.7 kmh N 3.6 mph5.8 kmh 30.09 in1019.0 mb 0.06 in1.5 mm 0.00 in0.0 mm 0.06 in1.5 mm
07:50 AM 62.8°F17.1°C 59.0°F15.0°C 89% 1.9 mph NNW3.1 kmh NNW 3.6 mph5.8 kmh 30.09 in1019.0 mb 0.06 in1.5 mm 0.00 in0.0 mm 0.06 in1.5 mm
07:55 AM 63.0°F17.2°C 60.8°F16.0°C 89% 1.7 mph NW2.7 kmh NW 2.7 mph4.3 kmh 30.09 in1019.0 mb 0.06 in1.5 mm 0.00 in0.0 mm 0.06 in1.5 mm
08:00 AM 63.3°F17.4°C 60.8°F16.0°C 89% 1.9 mph NW3.1 kmh NW 2.9 mph4.7 kmh 30.09 in1019.0 mb 0.06 in1.5 mm 0.00 in0.0 mm 0.06 in1.5 mm
08:05 AM 63.7°F17.6°C 60.8°F16.0°C 89% 1.7 mph NNW2.7 kmh NNW 2.9 mph4.7 kmh 30.09 in1019.0 mb 0.06 in1.5 mm 0.00 in0.0 mm 0.06 in1.5 mm
08:10 AM 64.0°F17.8°C 60.8°F16.0°C 89% 1.2 mph NNW1.9 kmh NNW 2.7 mph4.3 kmh 30.09 in1019.0 mb 0.06 in1.5 mm 0.00 in0.0 mm 0.06 in1.5 mm
08:15 AM 64.2°F17.9°C 60.8°F16.0°C 89% 1.6 mph NW2.6 kmh NW 3.4 mph5.5 kmh 30.09 in1019.0 mb 0.06 in1.5 mm 0.00 in0.0 mm 0.06 in1.5 mm
08:20 AM 64.4°F18.0°C 60.8°F16.0°C 88% 2.2 mph NNW3.5 kmh NNW 5.4 mph8.7 kmh 30.09 in1019.0 mb 0.06 in1.5 mm 0.00 in0.0 mm 0.06 in1.5 mm
08:25 AM 64.8°F18.2°C 60.8°F16.0°C 88% 2.6 mph NNW4.2 kmh NNW 5.4 mph8.7 kmh 30.09 in1019.0 mb 0.06 in1.5 mm 0.00 in0.0 mm 0.06 in1.5 mm
08:30 AM 65.1°F18.4°C 60.8°F16.0°C 88% 2.2 mph NNW3.5 kmh NNW 5.4 mph8.7 kmh 30.09 in1019.0 mb 0.00 in0.0 mm 0.00 in0.0 mm 0.06 in1.5 mm
08:35 AM 65.7°F18.7°C 62.6°F17.0°C 88% 1.8 mph NW2.9 kmh NW 3.4 mph5.5 kmh 30.09 in1019.0 mb 0.00 in0.0 mm 0.00 in0.0 mm 0.06 in1.5 mm
08:40 AM 65.8°F18.8°C 62.6°F17.0°C 88% 2.1 mph N3.4 kmh N 4.0 mph6.4 kmh 30.09 in1019.0 mb 0.00 in0.0 mm 0.00 in0.0 mm 0.06 in1.5 mm
08:45 AM 66.0°F18.9°C 62.6°F17.0°C 88% 2.3 mph N3.7 kmh N 4.9 mph7.9 kmh 30.09 in1019.0 mb 0.00 in0.0 mm 0.00 in0.0 mm 0.06 in1.5 mm
08:50 AM 66.2°F19.0°C 62.6°F17.0°C 87% 2.2 mph NW3.5 kmh NW 4.9 mph7.9 kmh 30.09 in1019.0 mb 0.00 in0.0 mm 0.00 in0.0 mm 0.06 in1.5 mm
08:55 AM 66.2°F19.0°C 62.6°F17.0°C 86% 2.6 mph NW4.2 kmh NW 4.0 mph6.4 kmh 30.09 in1019.0 mb 0.00 in0.0 mm 0.00 in0.0 mm 0.06 in1.5 mm
09:00 AM 66.2°F19.0°C 62.6°F17.0°C 86% 2.5 mph NNW4.0 kmh NNW 4.0 mph6.4 kmh 30.09 in1019.0 mb 0.00 in0.0 mm 0.00 in0.0 mm 0.06 in1.5 mm
09:05 AM 65.8°F18.8°C 62.6°F17.0°C 87% 2.7 mph N4.3 kmh N 4.3 mph6.9 kmh 30.09 in1019.0 mb 0.00 in0.0 mm 0.00 in0.0 mm 0.06 in1.5 mm
09:10 AM 65.8°F18.8°C 60.8°F16.0°C 86% 3.1 mph N5.0 kmh N 4.3 mph6.9 kmh 30.09 in1019.0 mb 0.00 in0.0 mm 0.00 in0.0 mm 0.06 in1.5 mm
09:15 AM 65.7°F18.7°C 60.8°F16.0°C 86% 3.2 mph N5.1 kmh N 4.3 mph6.9 kmh 30.09 in1019.0 mb 0.00 in0.0 mm 0.00 in0.0 mm 0.06 in1.5 mm
09:20 AM 65.7°F18.7°C 60.8°F16.0°C 86% 3.5 mph NNW5.6 kmh NNW 5.4 mph8.7 kmh 30.09 in1019.0 mb 0.00 in0.0 mm 0.00 in0.0 mm 0.06 in1.5 mm
09:25 AM 65.7°F18.7°C 60.8°F16.0°C 86% 3.7 mph NNW6.0 kmh NNW 5.4 mph8.7 kmh 30.09 in1019.0 mb 0.00 in0.0 mm 0.00 in0.0 mm 0.06 in1.5 mm
09:30 AM 65.7°F18.7°C 60.8°F16.0°C 86% 3.2 mph N5.1 kmh N 4.7 mph7.6 kmh 30.09 in1019.0 mb 0.00 in0.0 mm 0.00 in0.0 mm 0.06 in1.5 mm
09:35 AM 65.8°F18.8°C 60.8°F16.0°C 86% 2.6 mph N4.2 kmh N 3.8 mph6.1 kmh 30.09 in1019.0 mb 0.00 in0.0 mm 0.00 in0.0 mm 0.06 in1.5 mm
09:40 AM 66.0°F18.9°C 62.6°F17.0°C 86% 2.6 mph N4.2 kmh N 4.7 mph7.6 kmh 30.09 in1019.0 mb 0.00 in0.0 mm 0.00 in0.0 mm 0.06 in1.5 mm
09:45 AM 65.8°F18.8°C 60.8°F16.0°C 86% 2.6 mph N4.2 kmh N 4.7 mph7.6 kmh 30.09 in1019.0 mb 0.00 in0.0 mm 0.00 in0.0 mm 0.06 in1.5 mm
09:50 AM 65.8°F18.8°C 60.8°F16.0°C 86% 2.5 mph NW4.0 kmh NW 4.0 mph6.4 kmh 30.09 in1019.0 mb 0.00 in0.0 mm 0.00 in0.0 mm 0.06 in1.5 mm
09:55 AM 65.8°F18.8°C 60.8°F16.0°C 86% 2.6 mph NW4.2 kmh NW 4.0 mph6.4 kmh 30.09 in1019.0 mb 0.00 in0.0 mm 0.00 in0.0 mm 0.06 in1.5 mm
10:00 AM 66.0°F18.9°C 62.6°F17.0°C 86% 2.5 mph N4.0 kmh N 3.6 mph5.8 kmh 30.09 in1019.0 mb 0.00 in0.0 mm 0.00 in0.0 mm 0.06 in1.5 mm
10:05 AM 66.0°F18.9°C 62.6°F17.0°C 85% 2.7 mph N4.3 kmh N 4.0 mph6.4 kmh 30.12 in1020.0 mb 0.00 in0.0 mm 0.00 in0.0 mm 0.06 in1.5 mm
10:10 AM 65.8°F18.8°C 60.8°F16.0°C 85% 2.8 mph NNW4.5 kmh NNW 4.5 mph7.2 kmh 30.12 in1020.0 mb 0.00 in0.0 mm 0.00 in0.0 mm 0.06 in1.5 mm
10:15 AM 65.8°F18.8°C 60.8°F16.0°C 85% 3.3 mph NNW5.3 kmh NNW 5.6 mph9.0 kmh 30.12 in1020.0 mb 0.00 in0.0 mm 0.00 in0.0 mm 0.06 in1.5 mm
10:20 AM 66.0°F18.9°C 62.6°F17.0°C 85% 2.7 mph N4.3 kmh N 5.6 mph9.0 kmh 30.12 in1020.0 mb 0.00 in0.0 mm 0.00 in0.0 mm 0.06 in1.5 mm
10:25 AM 66.6°F19.2°C 62.6°F17.0°C 84% 2.9 mph NNE4.7 kmh NNE 6.3 mph10.1 kmh 30.12 in1020.0 mb 0.00 in0.0 mm 0.00 in0.0 mm 0.06 in1.5 mm
10:30 AM 67.1°F19.5°C 62.6°F17.0°C 84% 4.4 mph N7.1 kmh N 6.5 mph10.5 kmh 30.12 in1020.0 mb 0.00 in0.0 mm 0.00 in0.0 mm 0.06 in1.5 mm
10:35 AM 67.6°F19.8°C 62.6°F17.0°C 83% 4.3 mph N6.9 kmh N 6.5 mph10.5 kmh 30.12 in1020.0 mb 0.00 in0.0 mm 0.00 in0.0 mm 0.06 in1.5 mm
10:40 AM 67.8°F19.9°C 62.6°F17.0°C 82% 3.6 mph N5.8 kmh N 5.6 mph9.0 kmh 30.12 in1020.0 mb 0.00 in0.0 mm 0.00 in0.0 mm 0.06 in1.5 mm
10:45 AM 68.2°F20.1°C 62.6°F17.0°C 82% 2.8 mph NNW4.5 kmh NNW 5.6 mph9.0 kmh 30.12 in1020.0 mb 0.00 in0.0 mm 0.00 in0.0 mm 0.06 in1.5 mm
10:50 AM 68.4°F20.2°C 62.6°F17.0°C 81% 2.4 mph N3.9 kmh N 4.3 mph6.9 kmh 30.12 in1020.0 mb 0.00 in0.0 mm 0.00 in0.0 mm 0.06 in1.5 mm
10:55 AM 67.6°F19.8°C 60.8°F16.0°C 81% 3.6 mph NW5.8 kmh NW 5.4 mph8.7 kmh 30.12 in1020.0 mb 0.00 in0.0 mm 0.00 in0.0 mm 0.06 in1.5 mm
11:00 AM 67.6°F19.8°C 60.8°F16.0°C 81% 4.4 mph NNW7.1 kmh NNW 8.5 mph13.7 kmh 30.12 in1020.0 mb 0.00 in0.0 mm 0.00 in0.0 mm 0.06 in1.5 mm
11:05 AM 67.8°F19.9°C 62.6°F17.0°C 80% 4.5 mph N7.2 kmh N 8.5 mph13.7 kmh 30.12 in1020.0 mb 0.00 in0.0 mm 0.00 in0.0 mm 0.06 in1.5 mm
11:10 AM 69.4°F20.8°C 62.6°F17.0°C 79% 5.1 mph NE8.2 kmh NE 6.3 mph10.1 kmh 30.12 in1020.0 mb 0.00 in0.0 mm 0.00 in0.0 mm 0.06 in1.5 mm
11:15 AM 70.3°F21.3°C 62.6°F17.0°C 78% 4.9 mph NE7.9 kmh NE 6.0 mph9.7 kmh 30.12 in1020.0 mb 0.00 in0.0 mm 0.00 in0.0 mm 0.06 in1.5 mm
11:20 AM 69.4°F20.8°C 62.6°F17.0°C 78% 5.5 mph NNE8.9 kmh NNE 8.7 mph14.0 kmh 30.12 in1020.0 mb 0.00 in0.0 mm 0.00 in0.0 mm 0.06 in1.5 mm
11:25 AM 68.9°F20.5°C 62.6°F17.0°C 78% 6.1 mph NNE9.8 kmh NNE 8.7 mph14.0 kmh 30.12 in1020.0 mb 0.00 in0.0 mm 0.00 in0.0 mm 0.06 in1.5 mm
11:30 AM 70.9°F21.6°C 64.4°F18.0°C 77% 5.3 mph N8.5 kmh N 8.7 mph14.0 kmh 30.12 in1020.0 mb 0.00 in0.0 mm 0.00 in0.0 mm 0.06 in1.5 mm
11:35 AM 73.0°F22.8°C 64.4°F18.0°C 76% 4.1 mph N6.6 kmh N 6.0 mph9.7 kmh 30.12 in1020.0 mb 0.00 in0.0 mm 0.00 in0.0 mm 0.06 in1.5 mm
11:40 AM 72.7°F22.6°C 64.4°F18.0°C 75% 3.6 mph N5.8 kmh N 8.7 mph14.0 kmh 30.12 in1020.0 mb 0.00 in0.0 mm 0.00 in0.0 mm 0.06 in1.5 mm
11:45 AM 71.4°F21.9°C 64.4°F18.0°C 75% 4.7 mph N7.6 kmh N 8.7 mph14.0 kmh 30.12 in1020.0 mb 0.00 in0.0 mm 0.00 in0.0 mm 0.06 in1.5 mm
11:50 AM 70.9°F21.6°C 62.6°F17.0°C 76% 4.5 mph N7.2 kmh N 7.6 mph12.2 kmh 30.12 in1020.0 mb 0.00 in0.0 mm 0.00 in0.0 mm 0.06 in1.5 mm
11:55 AM 70.9°F21.6°C 62.6°F17.0°C 76% 4.4 mph NNE7.1 kmh NNE 7.8 mph12.6 kmh 30.12 in1020.0 mb 0.00 in0.0 mm 0.00 in0.0 mm 0.06 in1.5 mm
12:00 PM 71.1°F21.7°C 62.6°F17.0°C 75% 5.3 mph NE8.5 kmh NE 8.1 mph13.0 kmh 30.12 in1020.0 mb 0.00 in0.0 mm 0.00 in0.0 mm 0.06 in1.5 mm
12:05 PM 71.2°F21.8°C 62.6°F17.0°C 75% 5.4 mph NE8.7 kmh NE 8.1 mph13.0 kmh 30.12 in1020.0 mb 0.00 in0.0 mm 0.00 in0.0 mm 0.06 in1.5 mm
12:10 PM 71.6°F22.0°C 62.6°F17.0°C 74% 6.1 mph NNE9.8 kmh NNE 7.6 mph12.2 kmh 30.12 in1020.0 mb 0.00 in0.0 mm 0.00 in0.0 mm 0.06 in1.5 mm
12:15 PM 71.2°F21.8°C 62.6°F17.0°C 74% 7.6 mph NE12.2 kmh NE 8.7 mph14.0 kmh 30.12 in1020.0 mb 0.00 in0.0 mm 0.00 in0.0 mm 0.06 in1.5 mm
12:20 PM 71.2°F21.8°C 62.6°F17.0°C 74% 7.4 mph NE11.9 kmh NE 8.7 mph14.0 kmh 30.12 in1020.0 mb 0.00 in0.0 mm 0.00 in0.0 mm 0.06 in1.5 mm
12:25 PM 71.4°F21.9°C 62.6°F17.0°C 74% 6.0 mph NNE9.7 kmh NNE 8.5 mph13.7 kmh 30.12 in1020.0 mb 0.00 in0.0 mm 0.00 in0.0 mm 0.06 in1.5 mm
12:30 PM 71.2°F21.8°C 62.6°F17.0°C 74% 4.8 mph N7.7 kmh N 8.7 mph14.0 kmh 30.12 in1020.0 mb 0.00 in0.0 mm 0.00 in0.0 mm 0.06 in1.5 mm
12:35 PM 71.4°F21.9°C 62.6°F17.0°C 74% 5.3 mph NNE8.5 kmh NNE 8.9 mph14.3 kmh 30.12 in1020.0 mb 0.00 in0.0 mm 0.00 in0.0 mm 0.06 in1.5 mm
12:40 PM 71.8°F22.1°C 62.6°F17.0°C 73% 6.3 mph NE10.1 kmh NE 8.9 mph14.3 kmh 30.12 in1020.0 mb 0.00 in0.0 mm 0.00 in0.0 mm 0.06 in1.5 mm
12:45 PM 72.0°F22.2°C 62.6°F17.0°C 72% 6.0 mph NNE9.7 kmh NNE 7.4 mph11.9 kmh 30.12 in1020.0 mb 0.00 in0.0 mm 0.00 in0.0 mm 0.06 in1.5 mm
12:50 PM 72.1°F22.3°C 62.6°F17.0°C 72% 5.6 mph NNE9.0 kmh NNE 7.6 mph12.2 kmh 30.12 in1020.0 mb 0.00 in0.0 mm 0.00 in0.0 mm 0.06 in1.5 mm
12:55 PM 72.1°F22.3°C 62.6°F17.0°C 72% 4.9 mph N7.9 kmh N 7.6 mph12.2 kmh 30.12 in1020.0 mb 0.00 in0.0 mm 0.00 in0.0 mm 0.06 in1.5 mm
01:00 PM 72.3°F22.4°C 62.6°F17.0°C 72% 4.4 mph N7.1 kmh N 7.6 mph12.2 kmh 30.12 in1020.0 mb 0.00 in0.0 mm 0.00 in0.0 mm 0.06 in1.5 mm
01:05 PM 72.1°F22.3°C 62.6°F17.0°C 71% 4.6 mph N7.4 kmh N 7.2 mph11.6 kmh 30.12 in1020.0 mb 0.00 in0.0 mm 0.00 in0.0 mm 0.06 in1.5 mm
01:10 PM 72.5°F22.5°C 62.6°F17.0°C 71% 4.4 mph N7.1 kmh N 6.5 mph10.5 kmh 30.12 in1020.0 mb 0.00 in0.0 mm 0.00 in0.0 mm 0.06 in1.5 mm
01:15 PM 72.9°F22.7°C 62.6°F17.0°C 71% 4.9 mph N7.9 kmh N 7.4 mph11.9 kmh 30.12 in1020.0 mb 0.00 in0.0 mm 0.00 in0.0 mm 0.06 in1.5 mm
01:20 PM 72.5°F22.5°C 62.6°F17.0°C 71% 5.0 mph N8.0 kmh N 7.4 mph11.9 kmh 30.12 in1020.0 mb 0.00 in0.0 mm 0.00 in0.0 mm 0.06 in1.5 mm
01:25 PM 72.7°F22.6°C 62.6°F17.0°C 70% 5.1 mph N8.2 kmh N 7.4 mph11.9 kmh 30.12 in1020.0 mb 0.00 in0.0 mm 0.00 in0.0 mm 0.06 in1.5 mm
01:30 PM 72.9°F22.7°C 62.6°F17.0°C 70% 5.8 mph N9.3 kmh N 8.5 mph13.7 kmh 30.12 in1020.0 mb 0.00 in0.0 mm 0.00 in0.0 mm 0.06 in1.5 mm
01:35 PM 73.6°F23.1°C 62.6°F17.0°C 70% 5.7 mph N9.2 kmh N 8.5 mph13.7 kmh 30.12 in1020.0 mb 0.00 in0.0 mm 0.00 in0.0 mm 0.06 in1.5 mm
01:40 PM 73.2°F22.9°C 62.6°F17.0°C 69% 5.7 mph NNE9.2 kmh NNE 8.7 mph14.0 kmh 30.12 in1020.0 mb 0.00 in0.0 mm 0.00 in0.0 mm 0.06 in1.5 mm
01:45 PM 73.9°F23.3°C 62.6°F17.0°C 69% 5.6 mph NNE9.0 kmh NNE 8.7 mph14.0 kmh 30.12 in1020.0 mb 0.00 in0.0 mm 0.00 in0.0 mm 0.06 in1.5 mm
01:50 PM 73.6°F23.1°C 62.6°F17.0°C 68% 5.5 mph NNE8.9 kmh NNE 8.7 mph14.0 kmh 30.12 in1020.0 mb 0.00 in0.0 mm 0.00 in0.0 mm 0.06 in1.5 mm
01:55 PM 73.4°F23.0°C 62.6°F17.0°C 68% 6.1 mph NNE9.8 kmh NNE 8.5 mph13.7 kmh 30.12 in1020.0 mb 0.00 in0.0 mm 0.00 in0.0 mm 0.06 in1.5 mm
02:00 PM 73.6°F23.1°C 62.6°F17.0°C 68% 6.1 mph NNE9.8 kmh NNE 8.9 mph14.3 kmh 30.12 in1020.0 mb 0.00 in0.0 mm 0.00 in0.0 mm 0.06 in1.5 mm
02:05 PM 73.6°F23.1°C 62.6°F17.0°C 68% 5.5 mph NE8.9 kmh NE 8.9 mph14.3 kmh 30.12 in1020.0 mb 0.00 in0.0 mm 0.00 in0.0 mm 0.06 in1.5 mm
02:10 PM 74.5°F23.6°C 64.4°F18.0°C 68% 4.7 mph NE7.6 kmh NE 6.3 mph10.1 kmh 30.12 in1020.0 mb 0.00 in0.0 mm 0.00 in0.0 mm 0.06 in1.5 mm
02:15 PM 73.8°F23.2°C 62.6°F17.0°C 68% 4.6 mph NE7.4 kmh NE 5.8 mph9.3 kmh 30.12 in1020.0 mb 0.00 in0.0 mm 0.00 in0.0 mm 0.06 in1.5 mm
02:20 PM 73.8°F23.2°C 62.6°F17.0°C 68% 4.8 mph NE7.7 kmh NE 6.5 mph10.5 kmh 30.12 in1020.0 mb 0.00 in0.0 mm 0.00 in0.0 mm 0.06 in1.5 mm
02:25 PM 74.1°F23.4°C 62.6°F17.0°C 67% 4.2 mph NE6.8 kmh NE 6.5 mph10.5 kmh 30.12 in1020.0 mb 0.00 in0.0 mm 0.00 in0.0 mm 0.06 in1.5 mm
02:30 PM 74.5°F23.6°C 62.6°F17.0°C 66% 4.6 mph NE7.4 kmh NE 6.3 mph10.1 kmh 30.12 in1020.0 mb 0.00 in0.0 mm 0.00 in0.0 mm 0.06 in1.5 mm
02:35 PM 74.1°F23.4°C 62.6°F17.0°C 66% 5.2 mph NE8.4 kmh NE 7.6 mph12.2 kmh 30.12 in1020.0 mb 0.00 in0.0 mm 0.00 in0.0 mm 0.06 in1.5 mm
02:40 PM 74.5°F23.6°C 62.6°F17.0°C 66% 4.7 mph NE7.6 kmh NE 7.6 mph12.2 kmh 30.12 in1020.0 mb 0.00 in0.0 mm 0.00 in0.0 mm 0.06 in1.5 mm
02:45 PM 75.2°F24.0°C 62.6°F17.0°C 64% 4.1 mph NE6.6 kmh NE 5.8 mph9.3 kmh 30.12 in1020.0 mb 0.00 in0.0 mm 0.00 in0.0 mm 0.06 in1.5 mm
02:50 PM 74.8°F23.8°C 62.6°F17.0°C 66% 3.4 mph NNE5.5 kmh NNE 5.8 mph9.3 kmh 30.12 in1020.0 mb 0.00 in0.0 mm 0.00 in0.0 mm 0.06 in1.5 mm
02:55 PM 75.2°F24.0°C 62.6°F17.0°C 65% 3.6 mph NE5.8 kmh NE 6.5 mph10.5 kmh 30.12 in1020.0 mb 0.00 in0.0 mm 0.00 in0.0 mm 0.06 in1.5 mm
03:00 PM 74.7°F23.7°C 62.6°F17.0°C 67% 4.4 mph ENE7.1 kmh ENE 8.7 mph14.0 kmh 30.12 in1020.0 mb 0.00 in0.0 mm 0.00 in0.0 mm 0.06 in1.5 mm
03:05 PM 74.7°F23.7°C 62.6°F17.0°C 66% 4.3 mph NE6.9 kmh NE 8.7 mph14.0 kmh 30.12 in1020.0 mb 0.00 in0.0 mm 0.00 in0.0 mm 0.06 in1.5 mm
03:10 PM 74.1°F23.4°C 62.6°F17.0°C 66% 3.9 mph NE6.3 kmh NE 5.8 mph9.3 kmh 30.12 in1020.0 mb 0.00 in0.0 mm 0.00 in0.0 mm 0.06 in1.5 mm
03:15 PM 74.1°F23.4°C 62.6°F17.0°C 66% 3.4 mph N5.5 kmh N 4.9 mph7.9 kmh 30.12 in1020.0 mb 0.00 in0.0 mm 0.00 in0.0 mm 0.06 in1.5 mm
03:20 PM 74.5°F23.6°C 62.6°F17.0°C 66% 2.9 mph NE4.7 kmh NE 4.3 mph6.9 kmh 30.12 in1020.0 mb 0.00 in0.0 mm 0.00 in0.0 mm 0.06 in1.5 mm
03:25 PM 75.4°F24.1°C 62.6°F17.0°C 64% 3.4 mph NE5.5 kmh NE 6.0 mph9.7 kmh 30.12 in1020.0 mb 0.00 in0.0 mm 0.00 in0.0 mm 0.06 in1.5 mm
03:30 PM 73.9°F23.3°C 62.6°F17.0°C 65% 5.1 mph NE8.2 kmh NE 7.6 mph12.2 kmh 30.12 in1020.0 mb 0.00 in0.0 mm 0.00 in0.0 mm 0.06 in1.5 mm
03:35 PM 73.2°F22.9°C 60.8°F16.0°C 66% 5.2 mph NE8.4 kmh NE 7.6 mph12.2 kmh 30.12 in1020.0 mb 0.00 in0.0 mm 0.00 in0.0 mm 0.06 in1.5 mm
03:40 PM 72.9°F22.7°C 60.8°F16.0°C 66% 4.7 mph NNE7.6 kmh NNE 6.5 mph10.5 kmh 30.12 in1020.0 mb 0.00 in0.0 mm 0.00 in0.0 mm 0.06 in1.5 mm
03:45 PM 72.5°F22.5°C 60.8°F16.0°C 66% 4.8 mph NNE7.7 kmh NNE 5.6 mph9.0 kmh 30.12 in1020.0 mb 0.00 in0.0 mm 0.00 in0.0 mm 0.06 in1.5 mm
03:50 PM 72.5°F22.5°C 60.8°F16.0°C 67% 4.6 mph NE7.4 kmh NE 6.3 mph10.1 kmh 30.12 in1020.0 mb 0.00 in0.0 mm 0.00 in0.0 mm 0.06 in1.5 mm
03:55 PM 72.3°F22.4°C 60.8°F16.0°C 66% 4.3 mph NE6.9 kmh NE 6.3 mph10.1 kmh 30.12 in1020.0 mb 0.00 in0.0 mm 0.00 in0.0 mm 0.06 in1.5 mm
04:00 PM 72.7°F22.6°C 60.8°F16.0°C 67% 3.2 mph NE5.1 kmh NE 5.6 mph9.0 kmh 30.12 in1020.0 mb 0.00 in0.0 mm 0.00 in0.0 mm 0.06 in1.5 mm
04:05 PM 72.7°F22.6°C 60.8°F16.0°C 67% 2.7 mph NE4.3 kmh NE 4.3 mph6.9 kmh 30.12 in1020.0 mb 0.00 in0.0 mm 0.00 in0.0 mm 0.06 in1.5 mm
04:10 PM 72.3°F22.4°C 60.8°F16.0°C 67% 3.8 mph NE6.1 kmh NE 7.2 mph11.6 kmh 30.12 in1020.0 mb 0.00 in0.0 mm 0.00 in0.0 mm 0.06 in1.5 mm
04:15 PM 72.0°F22.2°C 60.8°F16.0°C 66% 5.2 mph NE8.4 kmh NE 8.1 mph13.0 kmh 30.12 in1020.0 mb 0.00 in0.0 mm 0.00 in0.0 mm 0.06 in1.5 mm
04:20 PM 72.5°F22.5°C 60.8°F16.0°C 66% 5.0 mph NE8.0 kmh NE 8.1 mph13.0 kmh 30.12 in1020.0 mb 0.00 in0.0 mm 0.00 in0.0 mm 0.06 in1.5 mm
04:25 PM 72.5°F22.5°C 60.8°F16.0°C 66% 3.8 mph NNE6.1 kmh NNE 5.8 mph9.3 kmh 30.12 in1020.0 mb 0.00 in0.0 mm 0.00 in0.0 mm 0.06 in1.5 mm
04:30 PM 72.7°F22.6°C 60.8°F16.0°C 66% 3.4 mph NNE5.5 kmh NNE 5.8 mph9.3 kmh 30.12 in1020.0 mb 0.00 in0.0 mm 0.00 in0.0 mm 0.06 in1.5 mm
04:35 PM 72.5°F22.5°C 60.8°F16.0°C 66% 3.2 mph NNE5.1 kmh NNE 4.3 mph6.9 kmh 30.12 in1020.0 mb 0.00 in0.0 mm 0.00 in0.0 mm 0.06 in1.5 mm
04:40 PM 72.1°F22.3°C 60.8°F16.0°C 66% 3.3 mph N5.3 kmh N 4.3 mph6.9 kmh 30.12 in1020.0 mb 0.00 in0.0 mm 0.00 in0.0 mm 0.06 in1.5 mm
04:45 PM 72.0°F22.2°C 60.8°F16.0°C 66% 3.5 mph NNE5.6 kmh NNE 6.5 mph10.5 kmh 30.12 in1020.0 mb 0.00 in0.0 mm 0.00 in0.0 mm 0.06 in1.5 mm
04:50 PM 71.6°F22.0°C 59.0°F15.0°C 66% 3.6 mph NNE5.8 kmh NNE 6.5 mph10.5 kmh 30.12 in1020.0 mb 0.00 in0.0 mm 0.00 in0.0 mm 0.06 in1.5 mm
04:55 PM 71.8°F22.1°C 59.0°F15.0°C 66% 3.6 mph NE5.8 kmh NE 6.0 mph9.7 kmh 30.12 in1020.0 mb 0.00 in0.0 mm 0.00 in0.0 mm 0.06 in1.5 mm
05:00 PM 71.6°F22.0°C 59.0°F15.0°C 66% 4.3 mph NNE6.9 kmh NNE 6.0 mph9.7 kmh 30.12 in1020.0 mb 0.00 in0.0 mm 0.00 in0.0 mm 0.06 in1.5 mm
05:05 PM 71.2°F21.8°C 59.0°F15.0°C 66% 4.5 mph N7.2 kmh N 6.0 mph9.7 kmh 30.12 in1020.0 mb 0.00 in0.0 mm 0.00 in0.0 mm 0.06 in1.5 mm
05:10 PM 71.1°F21.7°C 59.0°F15.0°C 66% 4.2 mph NNE6.8 kmh NNE 6.3 mph10.1 kmh 30.12 in1020.0 mb 0.00 in0.0 mm 0.00 in0.0 mm 0.06 in1.5 mm
05:15 PM 70.7°F21.5°C 59.0°F15.0°C 66% 4.8 mph NNE7.7 kmh NNE 8.1 mph13.0 kmh 30.12 in1020.0 mb 0.00 in0.0 mm 0.00 in0.0 mm 0.06 in1.5 mm
05:20 PM 70.5°F21.4°C 59.0°F15.0°C 66% 4.9 mph NNE7.9 kmh NNE 8.1 mph13.0 kmh 30.12 in1020.0 mb 0.00 in0.0 mm 0.00 in0.0 mm 0.06 in1.5 mm
05:25 PM 70.3°F21.3°C 59.0°F15.0°C 66% 4.4 mph NE7.1 kmh NE 6.5 mph10.5 kmh 30.12 in1020.0 mb 0.00 in0.0 mm 0.00 in0.0 mm 0.06 in1.5 mm
05:30 PM 70.2°F21.2°C 59.0°F15.0°C 66% 4.2 mph NNE6.8 kmh NNE 5.8 mph9.3 kmh 30.12 in1020.0 mb 0.00 in0.0 mm 0.00 in0.0 mm 0.06 in1.5 mm
05:35 PM 69.8°F21.0°C 57.2°F14.0°C 66% 3.5 mph NE5.6 kmh NE 5.6 mph9.0 kmh 30.12 in1020.0 mb 0.00 in0.0 mm 0.00 in0.0 mm 0.06 in1.5 mm
05:40 PM 69.8°F21.0°C 59.0°F15.0°C 67% 3.7 mph NE6.0 kmh NE 5.8 mph9.3 kmh 30.12 in1020.0 mb 0.00 in0.0 mm 0.00 in0.0 mm 0.06 in1.5 mm
05:45 PM 69.6°F20.9°C 59.0°F15.0°C 67% 4.1 mph NNE6.6 kmh NNE 6.5 mph10.5 kmh 30.12 in1020.0 mb 0.00 in0.0 mm 0.00 in0.0 mm 0.06 in1.5 mm
05:50 PM 69.4°F20.8°C 57.2°F14.0°C 67% 3.4 mph N5.5 kmh N 6.5 mph10.5 kmh 30.12 in1020.0 mb 0.00 in0.0 mm 0.00 in0.0 mm 0.06 in1.5 mm
05:55 PM 69.3°F20.7°C 57.2°F14.0°C 67% 3.8 mph NNE6.1 kmh NNE 7.4 mph11.9 kmh 30.12 in1020.0 mb 0.00 in0.0 mm 0.00 in0.0 mm 0.06 in1.5 mm
06:00 PM 69.3°F20.7°C 57.2°F14.0°C 67% 4.9 mph NE7.9 kmh NE 7.4 mph11.9 kmh 30.12 in1020.0 mb 0.00 in0.0 mm 0.00 in0.0 mm 0.06 in1.5 mm
06:05 PM 69.3°F20.7°C 57.2°F14.0°C 66% 4.8 mph NE7.7 kmh NE 6.5 mph10.5 kmh 30.12 in1020.0 mb 0.00 in0.0 mm 0.00 in0.0 mm 0.06 in1.5 mm
06:10 PM 69.1°F20.6°C 57.2°F14.0°C 66% 4.1 mph NNE6.6 kmh NNE 5.4 mph8.7 kmh 30.12 in1020.0 mb 0.00 in0.0 mm 0.00 in0.0 mm 0.06 in1.5 mm
06:15 PM 69.1°F20.6°C 57.2°F14.0°C 66% 4.1 mph NE6.6 kmh NE 6.5 mph10.5 kmh 30.12 in1020.0 mb 0.00 in0.0 mm 0.00 in0.0 mm 0.06 in1.5 mm
06:20 PM 68.9°F20.5°C 57.2°F14.0°C 66% 4.1 mph NNE6.6 kmh NNE 6.5 mph10.5 kmh 30.12 in1020.0 mb 0.00 in0.0 mm 0.00 in0.0 mm 0.06 in1.5 mm
06:25 PM 68.7°F20.4°C 57.2°F14.0°C 66% 4.3 mph NNE6.9 kmh NNE 5.8 mph9.3 kmh 30.12 in1020.0 mb 0.00 in0.0 mm 0.00 in0.0 mm 0.06 in1.5 mm
06:30 PM 68.4°F20.2°C 57.2°F14.0°C 66% 3.9 mph NNE6.3 kmh NNE 5.8 mph9.3 kmh 30.12 in1020.0 mb 0.00 in0.0 mm 0.00 in0.0 mm 0.06 in1.5 mm
06:35 PM 68.2°F20.1°C 55.4°F13.0°C 66% 3.6 mph NNE5.8 kmh NNE 5.8 mph9.3 kmh 30.12 in1020.0 mb 0.00 in0.0 mm 0.00 in0.0 mm 0.06 in1.5 mm
06:40 PM 67.8°F19.9°C 57.2°F14.0°C 67% 3.8 mph NNE6.1 kmh NNE 6.0 mph9.7 kmh 30.12 in1020.0 mb 0.00 in0.0 mm 0.00 in0.0 mm 0.06 in1.5 mm
06:45 PM 67.5°F19.7°C 57.2°F14.0°C 68% 4.0 mph N6.4 kmh N 6.5 mph10.5 kmh 30.12 in1020.0 mb 0.00 in0.0 mm 0.00 in0.0 mm 0.06 in1.5 mm
06:50 PM 67.3°F19.6°C 57.2°F14.0°C 68% 4.4 mph N7.1 kmh N 6.5 mph10.5 kmh 30.12 in1020.0 mb 0.00 in0.0 mm 0.00 in0.0 mm 0.06 in1.5 mm
06:55 PM 67.1°F19.5°C 57.2°F14.0°C 68% 4.2 mph NNE6.8 kmh NNE 6.5 mph10.5 kmh 30.12 in1020.0 mb 0.00 in0.0 mm 0.00 in0.0 mm 0.06 in1.5 mm
07:00 PM 66.7°F19.3°C 55.4°F13.0°C 69% 3.5 mph NNE5.6 kmh NNE 4.3 mph6.9 kmh 30.12 in1020.0 mb 0.00 in0.0 mm 0.00 in0.0 mm 0.06 in1.5 mm
07:05 PM 66.6°F19.2°C 57.2°F14.0°C 70% 3.0 mph NNE4.8 kmh NNE 4.9 mph7.9 kmh 30.12 in1020.0 mb 0.00 in0.0 mm 0.00 in0.0 mm 0.06 in1.5 mm
07:10 PM 66.2°F19.0°C 55.4°F13.0°C 70% 2.2 mph NNE3.5 kmh NNE 4.9 mph7.9 kmh 30.12 in1020.0 mb 0.00 in0.0 mm 0.00 in0.0 mm 0.06 in1.5 mm
07:15 PM 66.0°F18.9°C 57.2°F14.0°C 72% 1.2 mph N1.9 kmh N 2.5 mph4.0 kmh 30.12 in1020.0 mb 0.00 in0.0 mm 0.00 in0.0 mm 0.06 in1.5 mm
07:20 PM 65.8°F18.8°C 57.2°F14.0°C 72% 1.2 mph NNE1.9 kmh NNE 4.0 mph6.4 kmh 30.12 in1020.0 mb 0.00 in0.0 mm 0.00 in0.0 mm 0.06 in1.5 mm
07:25 PM 65.5°F18.6°C 57.2°F14.0°C 72% 1.7 mph NNE2.7 kmh NNE 4.0 mph6.4 kmh 30.12 in1020.0 mb 0.00 in0.0 mm 0.00 in0.0 mm 0.06 in1.5 mm
07:30 PM 65.3°F18.5°C 57.2°F14.0°C 72% 1.9 mph N3.1 kmh N 4.0 mph6.4 kmh 30.12 in1020.0 mb 0.00 in0.0 mm 0.00 in0.0 mm 0.06 in1.5 mm
07:35 PM 65.1°F18.4°C 55.4°F13.0°C 73% 1.8 mph NNE2.9 kmh NNE 3.1 mph5.0 kmh 30.12 in1020.0 mb 0.00 in0.0 mm 0.00 in0.0 mm 0.06 in1.5 mm
07:40 PM 64.8°F18.2°C 55.4°F13.0°C 73% 2.1 mph NNE3.4 kmh NNE 4.0 mph6.4 kmh 30.12 in1020.0 mb 0.00 in0.0 mm 0.00 in0.0 mm 0.06 in1.5 mm
07:45 PM 64.6°F18.1°C 55.4°F13.0°C 74% 2.2 mph NNE3.5 kmh NNE 4.0 mph6.4 kmh 30.12 in1020.0 mb 0.00 in0.0 mm 0.00 in0.0 mm 0.06 in1.5 mm
07:50 PM 64.4°F18.0°C 55.4°F13.0°C 74% 2.0 mph NNE3.2 kmh NNE 4.3 mph6.9 kmh 30.12 in1020.0 mb 0.00 in0.0 mm 0.00 in0.0 mm 0.06 in1.5 mm
07:55 PM 64.2°F17.9°C 55.4°F13.0°C 74% 2.4 mph NE3.9 kmh NE 4.3 mph6.9 kmh 30.12 in1020.0 mb 0.00 in0.0 mm 0.00 in0.0 mm 0.06 in1.5 mm
08:00 PM 63.9°F17.7°C 55.4°F13.0°C 74% 2.9 mph ENE4.7 kmh ENE 4.9 mph7.9 kmh 30.12 in1020.0 mb 0.00 in0.0 mm 0.00 in0.0 mm 0.06 in1.5 mm
08:05 PM 63.7°F17.6°C 55.4°F13.0°C 74% 2.6 mph NE4.2 kmh NE 4.9 mph7.9 kmh 30.12 in1020.0 mb 0.00 in0.0 mm 0.00 in0.0 mm 0.06 in1.5 mm
08:10 PM 63.5°F17.5°C 55.4°F13.0°C 75% 1.4 mph NE2.3 kmh NE 3.1 mph5.0 kmh 30.12 in1020.0 mb 0.00 in0.0 mm 0.00 in0.0 mm 0.06 in1.5 mm
08:15 PM 63.1°F17.3°C 55.4°F13.0°C 75% 1.2 mph NE1.9 kmh NE 2.7 mph4.3 kmh 30.12 in1020.0 mb 0.00 in0.0 mm 0.00 in0.0 mm 0.06 in1.5 mm
08:20 PM 63.0°F17.2°C 55.4°F13.0°C 75% 2.3 mph ENE3.7 kmh ENE 4.3 mph6.9 kmh 30.12 in1020.0 mb 0.00 in0.0 mm 0.00 in0.0 mm 0.06 in1.5 mm
08:25 PM 62.8°F17.1°C 55.4°F13.0°C 75% 3.0 mph NE4.8 kmh NE 4.3 mph6.9 kmh 30.12 in1020.0 mb 0.00 in0.0 mm 0.00 in0.0 mm 0.06 in1.5 mm
08:30 PM 62.4°F16.9°C 55.4°F13.0°C 77% 3.1 mph ENE5.0 kmh ENE 4.0 mph6.4 kmh 30.12 in1020.0 mb 0.00 in0.0 mm 0.00 in0.0 mm 0.06 in1.5 mm
08:35 PM 62.2°F16.8°C 55.4°F13.0°C 77% 2.6 mph NE4.2 kmh NE 3.4 mph5.5 kmh 30.12 in1020.0 mb 0.00 in0.0 mm 0.00 in0.0 mm 0.06 in1.5 mm
08:40 PM 62.1°F16.7°C 55.4°F13.0°C 77% 2.3 mph NE3.7 kmh NE 3.1 mph5.0 kmh 30.12 in1020.0 mb 0.00 in0.0 mm 0.00 in0.0 mm 0.06 in1.5 mm
08:45 PM 61.9°F16.6°C 55.4°F13.0°C 77% 1.7 mph NE2.7 kmh NE 3.1 mph5.0 kmh 30.12 in1020.0 mb 0.00 in0.0 mm 0.00 in0.0 mm 0.06 in1.5 mm
08:50 PM 61.7°F16.5°C 55.4°F13.0°C 77% 1.0 mph NNW1.6 kmh NNW 2.0 mph3.2 kmh 30.12 in1020.0 mb 0.00 in0.0 mm 0.00 in0.0 mm 0.06 in1.5 mm
08:55 PM 61.5°F16.4°C 55.4°F13.0°C 77% 0.7 mph NW1.1 kmh NW 2.0 mph3.2 kmh 30.12 in1020.0 mb 0.00 in0.0 mm 0.00 in0.0 mm 0.06 in1.5 mm
09:00 PM 61.2°F16.2°C 55.4°F13.0°C 78% 1.0 mph NW1.6 kmh NW 2.2 mph3.5 kmh 30.12 in1020.0 mb 0.00 in0.0 mm 0.00 in0.0 mm 0.06 in1.5 mm
09:05 PM 61.0°F16.1°C 53.6°F12.0°C 78% 1.6 mph NW2.6 kmh NW 2.2 mph3.5 kmh 30.12 in1020.0 mb 0.00 in0.0 mm 0.00 in0.0 mm 0.06 in1.5 mm
09:10 PM 60.8°F16.0°C 53.6°F12.0°C 78% 1.6 mph NNW2.6 kmh NNW 2.5 mph4.0 kmh 30.12 in1020.0 mb 0.00 in0.0 mm 0.00 in0.0 mm 0.06 in1.5 mm
09:15 PM 60.8°F16.0°C 53.6°F12.0°C 78% 1.7 mph N2.7 kmh N 2.5 mph4.0 kmh 30.12 in1020.0 mb 0.00 in0.0 mm 0.00 in0.0 mm 0.06 in1.5 mm
09:20 PM 60.6°F15.9°C 53.6°F12.0°C 78% 1.2 mph NNE1.9 kmh NNE 2.5 mph4.0 kmh 30.12 in1020.0 mb 0.00 in0.0 mm 0.00 in0.0 mm 0.06 in1.5 mm
09:25 PM 60.4°F15.8°C 53.6°F12.0°C 78% 0.2 mph NNE0.3 kmh NNE 1.3 mph2.1 kmh 30.12 in1020.0 mb 0.00 in0.0 mm 0.00 in0.0 mm 0.06 in1.5 mm
09:30 PM 60.3°F15.7°C 53.6°F12.0°C 78% 0.6 mph NE1.0 kmh NE 2.7 mph4.3 kmh 30.12 in1020.0 mb 0.00 in0.0 mm 0.00 in0.0 mm 0.06 in1.5 mm
09:35 PM 60.1°F15.6°C 53.6°F12.0°C 78% 1.4 mph NE2.3 kmh NE 2.7 mph4.3 kmh 30.12 in1020.0 mb 0.00 in0.0 mm 0.00 in0.0 mm 0.06 in1.5 mm
09:40 PM 59.9°F15.5°C 53.6°F12.0°C 78% 1.9 mph NE3.1 kmh NE 2.9 mph4.7 kmh 30.12 in1020.0 mb 0.00 in0.0 mm 0.00 in0.0 mm 0.06 in1.5 mm
09:45 PM 59.7°F15.4°C 53.6°F12.0°C 78% 1.9 mph NE3.1 kmh NE 2.9 mph4.7 kmh 30.12 in1020.0 mb 0.00 in0.0 mm 0.00 in0.0 mm 0.06 in1.5 mm
09:50 PM 59.7°F15.4°C 53.6°F12.0°C 78% 1.7 mph NE2.7 kmh NE 2.2 mph3.5 kmh 30.12 in1020.0 mb 0.00 in0.0 mm 0.00 in0.0 mm 0.06 in1.5 mm
09:55 PM 59.5°F15.3°C 53.6°F12.0°C 78% 1.1 mph NE1.8 kmh NE 1.6 mph2.6 kmh 30.12 in1020.0 mb 0.00 in0.0 mm 0.00 in0.0 mm 0.06 in1.5 mm
10:00 PM 59.4°F15.2°C 53.6°F12.0°C 78% 0.9 mph NE1.4 kmh NE 3.1 mph5.0 kmh 30.12 in1020.0 mb 0.00 in0.0 mm 0.00 in0.0 mm 0.06 in1.5 mm
10:05 PM 59.2°F15.1°C 53.6°F12.0°C 79% 1.7 mph NNE2.7 kmh NNE 3.1 mph5.0 kmh 30.12 in1020.0 mb 0.00 in0.0 mm 0.00 in0.0 mm 0.06 in1.5 mm
10:10 PM 59.2°F15.1°C 53.6°F12.0°C 79% 2.2 mph NNE3.5 kmh NNE 3.1 mph5.0 kmh 30.12 in1020.0 mb 0.00 in0.0 mm 0.00 in0.0 mm 0.06 in1.5 mm
10:15 PM 59.2°F15.1°C 53.6°F12.0°C 79% 2.2 mph NNE3.5 kmh NNE 2.7 mph4.3 kmh 30.12 in1020.0 mb 0.00 in0.0 mm 0.00 in0.0 mm 0.06 in1.5 mm
10:20 PM 59.0°F15.0°C 53.6°F12.0°C 79% 2.2 mph NNE3.5 kmh NNE 2.7 mph4.3 kmh 30.12 in1020.0 mb 0.00 in0.0 mm 0.00 in0.0 mm 0.06 in1.5 mm
10:25 PM 59.0°F15.0°C 53.6°F12.0°C 79% 2.3 mph NE3.7 kmh NE 3.1 mph5.0 kmh 30.12 in1020.0 mb 0.00 in0.0 mm 0.00 in0.0 mm 0.06 in1.5 mm
10:30 PM 59.0°F15.0°C 53.6°F12.0°C 79% 2.7 mph NE4.3 kmh NE 3.6 mph5.8 kmh 30.12 in1020.0 mb 0.00 in0.0 mm 0.00 in0.0 mm 0.06 in1.5 mm
10:35 PM 58.8°F14.9°C 53.6°F12.0°C 80% 2.8 mph NE4.5 kmh NE 3.6 mph5.8 kmh 30.12 in1020.0 mb 0.00 in0.0 mm 0.00 in0.0 mm 0.06 in1.5 mm
10:40 PM 58.8°F14.9°C 53.6°F12.0°C 80% 2.8 mph NE4.5 kmh NE 3.4 mph5.5 kmh 30.12 in1020.0 mb 0.00 in0.0 mm 0.00 in0.0 mm 0.06 in1.5 mm
10:45 PM 58.6°F14.8°C 53.6°F12.0°C 80% 2.9 mph NE4.7 kmh NE 3.6 mph5.8 kmh 30.12 in1020.0 mb 0.00 in0.0 mm 0.00 in0.0 mm 0.06 in1.5 mm
10:50 PM 58.5°F14.7°C 53.6°F12.0°C 80% 2.9 mph NNE4.7 kmh NNE 3.8 mph6.1 kmh 30.12 in1020.0 mb 0.00 in0.0 mm 0.00 in0.0 mm 0.06 in1.5 mm
10:55 PM 58.5°F14.7°C 53.6°F12.0°C 80% 2.8 mph NE4.5 kmh NE 4.0 mph6.4 kmh 30.12 in1020.0 mb 0.00 in0.0 mm 0.00 in0.0 mm 0.06 in1.5 mm
11:00 PM 58.3°F14.6°C 53.6°F12.0°C 80% 2.8 mph NE4.5 kmh NE 4.0 mph6.4 kmh 30.12 in1020.0 mb 0.00 in0.0 mm 0.00 in0.0 mm 0.06 in1.5 mm
11:05 PM 58.3°F14.6°C 53.6°F12.0°C 80% 2.5 mph NE4.0 kmh NE 4.0 mph6.4 kmh 30.12 in1020.0 mb 0.00 in0.0 mm 0.00 in0.0 mm 0.06 in1.5 mm
11:10 PM 58.1°F14.5°C 53.6°F12.0°C 80% 2.5 mph NNE4.0 kmh NNE 3.6 mph5.8 kmh 30.12 in1020.0 mb 0.00 in0.0 mm 0.00 in0.0 mm 0.06 in1.5 mm
11:15 PM 58.1°F14.5°C 53.6°F12.0°C 80% 2.8 mph NNE4.5 kmh NNE 4.3 mph6.9 kmh 30.12 in1020.0 mb 0.00 in0.0 mm 0.00 in0.0 mm 0.06 in1.5 mm
11:20 PM 58.1°F14.5°C 53.6°F12.0°C 80% 3.2 mph NNE5.1 kmh NNE 4.3 mph6.9 kmh 30.12 in1020.0 mb 0.00 in0.0 mm 0.00 in0.0 mm 0.06 in1.5 mm
11:25 PM 57.9°F14.4°C 51.8°F11.0°C 80% 3.4 mph NNE5.5 kmh NNE 4.3 mph6.9 kmh 30.12 in1020.0 mb 0.00 in0.0 mm 0.00 in0.0 mm 0.06 in1.5 mm
11:30 PM 57.9°F14.4°C 51.8°F11.0°C 81% 3.4 mph NNE5.5 kmh NNE 4.7 mph7.6 kmh 30.12 in1020.0 mb 0.00 in0.0 mm 0.00 in0.0 mm 0.06 in1.5 mm
11:35 PM 57.7°F14.3°C 51.8°F11.0°C 81% 2.8 mph NE4.5 kmh NE 4.7 mph7.6 kmh 30.12 in1020.0 mb 0.00 in0.0 mm 0.00 in0.0 mm 0.06 in1.5 mm
11:40 PM 57.7°F14.3°C 51.8°F11.0°C 81% 2.1 mph NE3.4 kmh NE 3.4 mph5.5 kmh 30.12 in1020.0 mb 0.00 in0.0 mm 0.00 in0.0 mm 0.06 in1.5 mm
11:45 PM 57.6°F14.2°C 51.8°F11.0°C 81% 2.1 mph NE3.4 kmh NE 3.8 mph6.1 kmh 30.12 in1020.0 mb 0.00 in0.0 mm 0.00 in0.0 mm 0.06 in1.5 mm
11:50 PM 57.6°F14.2°C 51.8°F11.0°C 81% 1.9 mph ENE3.1 kmh ENE 3.8 mph6.1 kmh 30.12 in1020.0 mb 0.00 in0.0 mm 0.00 in0.0 mm 0.06 in1.5 mm
11:55 PM 57.4°F14.1°C 51.8°F11.0°C 81% 1.5 mph ESE2.4 kmh ESE 2.2 mph3.5 kmh 30.12 in1020.0 mb 0.00 in0.0 mm 0.00 in0.0 mm 0.06 in1.5 mm